createdAt,value
2018-07-28T00:00:13.094Z,94464.00
2018-07-28T00:02:44.279Z,94472.00
2018-07-28T00:05:15.899Z,94465.00
2018-07-28T00:07:47.904Z,94464.00
2018-07-28T00:10:19.664Z,94457.00
2018-07-28T00:12:51.025Z,94464.00
2018-07-28T00:15:23.330Z,94467.00
2018-07-28T00:17:55.155Z,94462.00
2018-07-28T00:20:27.061Z,94472.00
2018-07-28T00:22:58.313Z,94473.00
2018-07-28T00:25:33.531Z,94471.00
2018-07-28T00:28:05.306Z,94472.00
2018-07-28T00:30:37.097Z,94470.00
2018-07-28T00:33:08.367Z,94471.00
2018-07-28T00:35:40.286Z,94470.00
2018-07-28T00:38:12.145Z,94470.00
2018-07-28T00:40:44.138Z,94471.00
2018-07-28T00:43:16.208Z,94473.00
2018-07-28T00:45:48.253Z,94474.00
2018-07-28T00:48:19.952Z,94474.00
2018-07-28T00:50:51.804Z,94467.00
2018-07-28T00:53:24.838Z,94468.00
2018-07-28T00:55:57.182Z,94465.00
2018-07-28T00:58:28.752Z,94468.00
2018-07-28T01:01:00.441Z,94463.00
2018-07-28T01:03:32.432Z,94461.00
2018-07-28T01:06:04.389Z,94456.00
2018-07-28T01:08:36.128Z,94457.00
2018-07-28T01:11:08.073Z,94454.00
2018-07-28T01:13:39.125Z,94460.00
2018-07-28T01:16:11.217Z,94468.00
2018-07-28T01:18:43.634Z,94469.00
2018-07-28T01:21:16.379Z,94462.00
2018-07-28T01:23:48.234Z,94455.00
2018-07-28T01:26:20.009Z,94460.00
2018-07-28T01:28:55.764Z,94467.00
2018-07-28T01:31:28.571Z,94462.00
2018-07-28T01:33:59.707Z,94456.00
2018-07-28T01:36:31.454Z,94443.00
2018-07-28T01:39:03.493Z,94447.00
2018-07-28T01:41:35.382Z,94445.00
2018-07-28T01:44:06.837Z,94437.00
2018-07-28T01:46:37.968Z,94435.00
2018-07-28T01:49:09.303Z,94434.00
2018-07-28T01:51:40.934Z,94437.00
2018-07-28T01:54:12.855Z,94441.00
2018-07-28T01:56:45.162Z,94445.00
2018-07-28T01:59:17.253Z,94439.00
2018-07-28T02:01:48.990Z,94441.00
2018-07-28T02:04:20.626Z,94445.00
2018-07-28T02:06:52.580Z,94446.00
2018-07-28T02:09:24.420Z,94450.00
2018-07-28T02:11:56.285Z,94448.00
2018-07-28T02:14:28.887Z,94448.00
2018-07-28T02:17:00.755Z,94449.00
2018-07-28T02:19:31.969Z,94448.00
2018-07-28T02:22:04.046Z,94450.00
2018-07-28T02:24:36.682Z,94454.00
2018-07-28T02:27:08.023Z,94454.00
2018-07-28T02:29:39.287Z,94453.00
2018-07-28T02:32:10.946Z,94454.00
2018-07-28T02:34:43.404Z,94454.00
2018-07-28T02:37:15.387Z,94455.00
2018-07-28T02:39:47.678Z,94449.00
2018-07-28T02:42:19.467Z,94449.00
2018-07-28T02:44:51.337Z,94445.00
2018-07-28T02:47:24.033Z,94444.00
2018-07-28T02:49:56.363Z,94446.00
2018-07-28T02:52:27.674Z,94457.00
2018-07-28T02:54:59.402Z,94456.00
2018-07-28T02:57:31.425Z,94450.00
2018-07-28T03:00:04.129Z,94451.00
2018-07-28T03:02:35.975Z,94456.00
2018-07-28T03:05:09.027Z,94459.00
2018-07-28T03:07:41.201Z,94465.00
2018-07-28T03:10:13.023Z,94461.00
2018-07-28T03:12:44.852Z,94471.00
2018-07-28T03:15:35.031Z,94478.00
2018-07-28T03:18:08.504Z,94477.00
2018-07-28T03:20:40.276Z,94482.00
2018-07-28T03:23:11.914Z,94480.00
2018-07-28T03:25:44.470Z,94481.00
2018-07-28T03:28:16.483Z,94480.00
2018-07-28T03:30:48.799Z,94475.00
2018-07-28T03:33:20.560Z,94482.00
2018-07-28T03:35:52.898Z,94480.00
2018-07-28T03:38:24.197Z,94479.00
2018-07-28T03:40:55.956Z,94477.00
2018-07-28T03:43:30.895Z,94472.00
2018-07-28T03:46:03.384Z,94472.00
2018-07-28T03:48:34.853Z,94468.00
2018-07-28T03:51:06.345Z,94468.00
2018-07-28T03:53:38.226Z,94466.00
2018-07-28T03:56:09.352Z,94464.00
2018-07-28T03:58:40.363Z,94465.00
2018-07-28T04:01:12.526Z,94466.00
2018-07-28T04:03:43.655Z,94463.00
2018-07-28T04:06:14.936Z,94465.00
2018-07-28T04:08:46.125Z,94467.00
2018-07-28T04:11:17.745Z,94471.00
2018-07-28T04:13:49.499Z,94471.00
2018-07-28T04:16:21.565Z,94476.00
2018-07-28T04:18:53.509Z,94476.00
2018-07-28T04:21:24.736Z,94475.00
2018-07-28T04:23:56.382Z,94478.00
2018-07-28T04:26:27.813Z,94483.00
2018-07-28T04:28:58.789Z,94482.00
2018-07-28T04:31:30.635Z,94481.00
2018-07-28T04:34:02.718Z,94485.00
2018-07-28T04:36:35.375Z,94481.00
2018-07-28T04:39:11.100Z,94481.00
2018-07-28T04:41:43.759Z,94486.00
2018-07-28T04:44:14.996Z,94487.00
2018-07-28T04:46:46.733Z,94479.00
2018-07-28T04:49:18.949Z,94480.00
2018-07-28T04:51:50.905Z,94478.00
2018-07-28T04:54:23.113Z,94481.00
2018-07-28T04:56:55.088Z,94485.00
2018-07-28T04:59:27.378Z,94486.00
2018-07-28T05:01:59.506Z,94490.00
2018-07-28T05:04:31.730Z,94485.00
2018-07-28T05:07:03.550Z,94487.00
2018-07-28T05:09:34.737Z,94491.00
2018-07-28T05:12:07.064Z,94492.00
2018-07-28T05:14:38.617Z,94498.00
2018-07-28T05:17:10.357Z,94497.00
2018-07-28T05:19:42.577Z,94497.00
2018-07-28T05:22:14.671Z,94503.00
2018-07-28T05:24:46.615Z,94503.00
2018-07-28T05:27:18.832Z,94507.00
2018-07-28T05:29:50.275Z,94513.00
2018-07-28T05:32:23.398Z,94517.00
2018-07-28T05:34:55.685Z,94514.00
2018-07-28T05:37:28.441Z,94508.00
2018-07-28T05:40:00.506Z,94513.00
2018-07-28T05:42:32.911Z,94510.00
2018-07-28T05:45:04.446Z,94511.00
2018-07-28T05:47:36.743Z,94513.00
2018-07-28T05:50:10.316Z,94522.00
2018-07-28T05:52:42.528Z,94522.00
2018-07-28T05:55:14.385Z,94523.00
2018-07-28T05:57:46.596Z,94525.00
2018-07-28T06:00:18.422Z,94527.00
2018-07-28T06:02:50.699Z,94525.00
2018-07-28T06:05:23.046Z,94528.00
2018-07-28T06:07:55.411Z,94524.00
2018-07-28T06:10:27.851Z,94525.00
2018-07-28T06:13:00.102Z,94518.00
2018-07-28T06:15:32.396Z,94519.00
2018-07-28T06:18:04.802Z,94519.00
2018-07-28T06:20:37.134Z,94513.00
2018-07-28T06:23:09.518Z,94518.00
2018-07-28T06:25:41.876Z,94521.00
2018-07-28T06:28:14.284Z,94523.00
2018-07-28T06:30:46.547Z,94516.00
2018-07-28T06:33:18.284Z,94512.00
2018-07-28T06:35:50.318Z,94517.00
2018-07-28T06:38:22.811Z,94510.00
2018-07-28T06:40:54.863Z,94508.00
2018-07-28T06:43:26.864Z,94504.00
2018-07-28T06:45:59.197Z,94506.00
2018-07-28T06:48:31.193Z,94501.00
2018-07-28T06:51:02.800Z,94505.00
2018-07-28T06:53:35.004Z,94501.00
2018-07-28T06:56:07.072Z,94504.00
2018-07-28T06:58:39.839Z,94501.00
2018-07-28T07:01:12.277Z,94507.00
2018-07-28T07:03:44.012Z,94499.00
2018-07-28T07:06:16.255Z,94490.00
2018-07-28T07:08:48.617Z,94492.00
2018-07-28T07:11:20.820Z,94491.00
2018-07-28T07:13:52.842Z,94487.00
2018-07-28T07:16:26.222Z,94489.00
2018-07-28T07:18:57.971Z,94479.00
2018-07-28T07:21:30.416Z,94482.00
2018-07-28T07:24:02.544Z,94478.00
2018-07-28T07:26:34.947Z,94471.00
2018-07-28T07:29:07.820Z,94474.00
2018-07-28T07:31:40.025Z,94474.00
2018-07-28T07:34:12.433Z,94470.00
2018-07-28T07:36:44.663Z,94469.00
2018-07-28T07:39:16.824Z,94467.00
2018-07-28T07:41:49.072Z,94467.00
2018-07-28T07:44:21.095Z,94466.00
2018-07-28T07:46:53.933Z,94465.00
2018-07-28T07:49:25.608Z,94464.00
2018-07-28T07:51:57.667Z,94461.00
2018-07-28T07:54:29.775Z,94462.00
2018-07-28T07:57:02.147Z,94462.00
2018-07-28T07:59:33.610Z,94462.00
2018-07-28T08:02:05.903Z,94460.00
2018-07-28T08:04:37.561Z,94464.00
2018-07-28T08:07:09.758Z,94459.00
2018-07-28T08:09:41.900Z,94464.00
2018-07-28T08:12:13.571Z,94461.00
2018-07-28T08:14:46.502Z,94465.00
2018-07-28T08:17:18.899Z,94462.00
2018-07-28T08:19:51.104Z,94462.00
2018-07-28T08:22:23.364Z,94463.00
2018-07-28T08:24:55.616Z,94461.00
2018-07-28T08:27:28.089Z,94459.00
2018-07-28T08:30:01.048Z,94459.00
2018-07-28T08:32:33.257Z,94456.00
2018-07-28T08:35:06.739Z,94457.00
2018-07-28T08:37:39.556Z,94457.00
2018-07-28T08:40:12.765Z,94453.00
2018-07-28T08:42:45.013Z,94459.00
2018-07-28T08:45:16.986Z,94458.00
2018-07-28T08:47:48.576Z,94450.00
2018-07-28T08:50:20.745Z,94444.00
2018-07-28T08:52:52.981Z,94444.00
2018-07-28T08:55:25.127Z,94447.00
2018-07-28T08:57:57.503Z,94442.00
2018-07-28T09:00:29.450Z,94437.00
2018-07-28T09:03:01.690Z,94427.00
2018-07-28T09:05:33.737Z,94427.00
2018-07-28T09:08:06.037Z,94431.00
2018-07-28T09:10:38.259Z,94419.00
2018-07-28T09:13:10.748Z,94420.00
2018-07-28T09:15:42.287Z,94414.00
2018-07-28T09:18:14.421Z,94410.00
2018-07-28T09:20:46.966Z,94410.00
2018-07-28T09:23:19.711Z,94402.00
2018-07-28T09:25:52.045Z,94401.00
2018-07-28T09:28:24.207Z,94398.00
2018-07-28T09:30:56.284Z,94395.00
2018-07-28T09:33:28.775Z,94390.00
2018-07-28T09:36:01.455Z,94396.00
2018-07-28T09:38:33.902Z,94397.00
2018-07-28T09:41:06.204Z,94387.00
2018-07-28T09:43:38.268Z,94381.00
2018-07-28T09:46:10.468Z,94369.00
2018-07-28T09:48:42.917Z,94371.00
2018-07-28T09:51:15.174Z,94366.00
2018-07-28T09:53:47.976Z,94369.00
2018-07-28T09:56:20.731Z,94366.00
2018-07-28T09:58:53.044Z,94367.00
2018-07-28T10:01:25.411Z,94361.00
2018-07-28T10:03:58.070Z,94360.00
2018-07-28T10:06:30.645Z,94357.00
2018-07-28T10:09:02.380Z,94351.00
2018-07-28T10:11:34.373Z,94353.00
2018-07-28T10:14:06.820Z,94347.00
2018-07-28T10:16:38.382Z,94349.00
2018-07-28T10:19:10.386Z,94337.00
2018-07-28T10:21:42.819Z,94334.00
2018-07-28T10:24:14.942Z,94331.00
2018-07-28T10:29:47.596Z,94326.00
2018-07-28T10:32:19.640Z,94317.00
2018-07-28T10:34:51.843Z,94314.00
2018-07-28T10:37:24.361Z,94315.00
2018-07-28T10:39:56.645Z,94305.00
2018-07-28T10:42:28.877Z,94305.00
2018-07-28T10:45:01.780Z,94295.00
2018-07-28T10:47:33.755Z,94298.00
2018-07-28T10:50:05.848Z,94297.00
2018-07-28T10:52:38.198Z,94300.00
2018-07-28T10:55:10.528Z,94297.00
2018-07-28T10:57:42.543Z,94297.00
2018-07-28T11:00:14.556Z,94294.00
2018-07-28T11:02:47.190Z,94299.00
2018-07-28T11:05:19.913Z,94293.00
2018-07-28T11:07:53.459Z,94290.00
2018-07-28T11:10:25.842Z,94288.00
2018-07-28T11:12:58.202Z,94294.00
2018-07-28T11:15:30.396Z,94293.00
2018-07-28T11:18:02.124Z,94287.00
2018-07-28T11:20:34.702Z,94286.00
2018-07-28T11:23:07.614Z,94283.00
2018-07-28T11:25:39.783Z,94282.00
2018-07-28T11:28:12.397Z,94269.00
2018-07-28T11:30:44.766Z,94270.00
2018-07-28T11:33:32.963Z,94265.00
2018-07-28T11:36:21.153Z,94272.00
2018-07-28T11:39:09.616Z,94265.00
2018-07-28T11:41:57.453Z,94264.00
2018-07-28T11:44:45.705Z,94253.00
2018-07-28T11:47:18.183Z,94251.00
2018-07-28T11:49:51.475Z,94256.00
2018-07-28T11:52:23.249Z,94253.00
2018-07-28T11:54:55.569Z,94249.00
2018-07-28T11:57:28.031Z,94250.00
2018-07-28T12:00:00.195Z,94256.00
2018-07-28T12:02:33.422Z,94251.00
2018-07-28T12:05:05.951Z,94254.00
2018-07-28T12:07:38.397Z,94252.00
2018-07-28T12:10:11.340Z,94252.00
2018-07-28T12:12:43.491Z,94246.00
2018-07-28T12:15:17.987Z,94244.00
2018-07-28T12:17:50.389Z,94244.00
2018-07-28T12:20:22.639Z,94241.00
2018-07-28T12:22:54.360Z,94240.00
2018-07-28T12:25:26.588Z,94242.00
2018-07-28T12:27:58.744Z,94248.00
2018-07-28T12:30:31.488Z,94242.00
2018-07-28T12:33:03.821Z,94237.00
2018-07-28T12:35:35.757Z,94238.00
2018-07-28T12:38:07.549Z,94241.00
2018-07-28T12:40:39.598Z,94245.00
2018-07-28T12:43:11.580Z,94249.00
2018-07-28T12:45:43.582Z,94248.00
2018-07-28T12:48:15.726Z,94249.00
2018-07-28T12:50:47.492Z,94242.00
2018-07-28T12:53:19.585Z,94242.00
2018-07-28T12:55:52.965Z,94242.00
2018-07-28T12:58:24.707Z,94239.00
2018-07-28T13:00:56.831Z,94248.00
2018-07-28T13:03:29.393Z,94256.00
2018-07-28T13:06:01.437Z,94256.00
2018-07-28T13:08:35.105Z,94253.00
2018-07-28T13:11:07.607Z,94253.00
2018-07-28T13:13:39.629Z,94249.00
2018-07-28T13:16:12.165Z,94244.00
2018-07-28T13:18:44.627Z,94246.00
2018-07-28T13:21:16.592Z,94253.00
2018-07-28T13:23:49.163Z,94254.00
2018-07-28T13:26:21.707Z,94254.00
2018-07-28T13:28:53.882Z,94252.00
2018-07-28T13:31:25.918Z,94250.00
2018-07-28T13:33:58.567Z,94255.00
2018-07-28T13:36:30.766Z,94254.00
2018-07-28T13:39:02.986Z,94258.00
2018-07-28T13:41:36.488Z,94255.00
2018-07-28T13:44:08.650Z,94256.00
2018-07-28T13:46:40.509Z,94254.00
2018-07-28T13:49:12.207Z,94260.00
2018-07-28T13:51:44.340Z,94267.00
2018-07-28T13:54:16.619Z,94265.00
2018-07-28T13:56:49.162Z,94259.00
2018-07-28T13:59:21.361Z,94268.00
2018-07-28T14:01:53.340Z,94265.00
2018-07-28T14:04:25.899Z,94265.00
2018-07-28T14:06:58.648Z,94272.00
2018-07-28T14:09:30.068Z,94273.00
2018-07-28T14:12:02.715Z,94275.00
2018-07-28T14:14:34.985Z,94276.00
2018-07-28T14:17:07.203Z,94273.00
2018-07-28T14:19:40.384Z,94270.00
2018-07-28T14:22:12.343Z,94265.00
2018-07-28T14:24:44.724Z,94260.00
2018-07-28T14:27:16.787Z,94261.00
2018-07-28T14:29:48.955Z,94259.00
2018-07-28T14:32:21.334Z,94256.00
2018-07-28T14:34:54.949Z,94259.00
2018-07-28T14:37:28.557Z,94258.00
2018-07-28T14:40:00.142Z,94256.00
2018-07-28T14:42:32.450Z,94262.00
2018-07-28T14:45:06.426Z,94261.00
2018-07-28T14:47:39.455Z,94268.00
2018-07-28T14:50:11.885Z,94274.00
2018-07-28T14:52:43.864Z,94279.00
2018-07-28T14:55:16.017Z,94272.00
2018-07-28T14:57:48.417Z,94271.00
2018-07-28T15:00:20.805Z,94277.00
2018-07-28T15:02:53.174Z,94281.00
2018-07-28T15:05:26.036Z,94284.00
2018-07-28T15:07:58.257Z,94280.00
2018-07-28T15:10:30.607Z,94280.00
2018-07-28T15:13:02.831Z,94286.00
2018-07-28T15:15:34.796Z,94290.00
2018-07-28T15:18:06.737Z,94286.00
2018-07-28T15:20:39.065Z,94289.00
2018-07-28T15:23:11.245Z,94285.00
2018-07-28T15:25:43.595Z,94279.00
2018-07-28T15:28:16.350Z,94277.00
2018-07-28T15:30:48.458Z,94279.00
2018-07-28T15:33:20.711Z,94279.00
2018-07-28T15:35:52.967Z,94280.00
2018-07-28T15:38:25.684Z,94280.00
2018-07-28T15:40:59.137Z,94280.00
2018-07-28T15:43:31.209Z,94280.00
2018-07-28T15:46:03.338Z,94283.00
2018-07-28T15:48:36.368Z,94283.00
2018-07-28T15:51:09.137Z,94284.00
2018-07-28T15:53:41.795Z,94287.00
2018-07-28T15:56:14.280Z,94289.00
2018-07-28T15:58:47.057Z,94297.00
2018-07-28T16:01:19.804Z,94299.00
2018-07-28T16:03:52.034Z,94300.00
2018-07-28T16:06:25.139Z,94305.00
2018-07-28T16:08:57.998Z,94311.00
2018-07-28T16:11:30.546Z,94319.00
2018-07-28T16:14:03.139Z,94311.00
2018-07-28T16:16:35.363Z,94306.00
2018-07-28T16:19:08.062Z,94308.00
2018-07-28T16:21:40.832Z,94311.00
2018-07-28T16:24:13.141Z,94315.00
2018-07-28T16:26:45.979Z,94316.00
2018-07-28T16:29:19.389Z,94324.00
2018-07-28T16:31:52.007Z,94326.00
2018-07-28T16:34:25.243Z,94333.00
2018-07-28T16:36:58.555Z,94329.00
2018-07-28T16:39:31.130Z,94330.00
2018-07-28T16:42:03.282Z,94332.00
2018-07-28T16:44:35.691Z,94331.00
2018-07-28T16:47:08.739Z,94325.00
2018-07-28T16:49:41.392Z,94320.00
2018-07-28T16:52:14.287Z,94317.00
2018-07-28T16:54:46.799Z,94323.00
2018-07-28T16:57:18.798Z,94324.00
2018-07-28T16:59:50.989Z,94330.00
2018-07-28T17:02:23.476Z,94331.00
2018-07-28T17:04:56.108Z,94333.00
2018-07-28T17:07:28.460Z,94341.00
2018-07-28T17:10:01.091Z,94349.00
2018-07-28T17:12:33.573Z,94353.00
2018-07-28T17:15:06.139Z,94356.00
2018-07-28T17:17:39.129Z,94363.00
2018-07-28T17:20:11.962Z,94363.00
2018-07-28T17:22:44.663Z,94362.00
2018-07-28T17:25:16.452Z,94369.00
2018-07-28T17:27:49.372Z,94370.00
2018-07-28T17:30:25.511Z,94367.00
2018-07-28T17:32:58.283Z,94362.00
2018-07-28T17:35:30.946Z,94364.00
2018-07-28T17:38:03.451Z,94360.00
2018-07-28T17:40:36.261Z,94366.00
2018-07-28T17:43:08.452Z,94364.00
2018-07-28T17:45:40.933Z,94369.00
2018-07-28T17:48:13.604Z,94381.00
2018-07-28T17:50:46.296Z,94384.00
2018-07-28T17:53:18.915Z,94385.00
2018-07-28T17:55:50.623Z,94385.00
2018-07-28T17:58:23.007Z,94384.00
2018-07-28T18:00:55.686Z,94386.00
2018-07-28T18:03:27.692Z,94386.00
2018-07-28T18:06:00.364Z,94390.00
2018-07-28T18:08:32.913Z,94396.00
2018-07-28T18:11:05.654Z,94404.00
2018-07-28T18:13:38.165Z,94406.00
2018-07-28T18:16:10.564Z,94416.00
2018-07-28T18:18:44.544Z,94427.00
2018-07-28T18:21:16.856Z,94431.00
2018-07-28T18:23:50.194Z,94439.00
2018-07-28T18:26:22.502Z,94438.00
2018-07-28T18:28:54.435Z,94439.00
2018-07-28T18:31:26.869Z,94438.00
2018-07-28T18:33:59.382Z,94441.00
2018-07-28T18:36:31.829Z,94439.00
2018-07-28T18:39:05.663Z,94440.00
2018-07-28T18:41:39.049Z,94445.00
2018-07-28T18:44:12.142Z,94445.00
2018-07-28T18:46:45.085Z,94441.00
2018-07-28T18:49:18.255Z,94441.00
2018-07-28T18:51:51.293Z,94445.00
2018-07-28T18:54:23.328Z,94449.00
2018-07-28T18:56:56.504Z,94455.00
2018-07-28T18:59:29.584Z,94466.00
2018-07-28T19:02:02.589Z,94476.00
2018-07-28T19:04:35.447Z,94481.00
2018-07-28T19:07:08.134Z,94484.00
2018-07-28T19:09:45.493Z,94489.00
2018-07-28T19:12:19.247Z,94490.00
2018-07-28T19:14:52.997Z,94488.00
2018-07-28T19:17:29.766Z,94491.00
2018-07-28T19:20:02.035Z,94488.00
2018-07-28T19:22:39.497Z,94485.00
2018-07-28T19:25:12.046Z,94485.00
2018-07-28T19:27:50.893Z,94491.00
2018-07-28T19:30:23.867Z,94496.00
2018-07-28T19:32:56.696Z,94504.00
2018-07-28T19:35:33.790Z,94511.00
2018-07-28T19:38:07.480Z,94508.00
2018-07-28T19:40:40.525Z,94506.00
2018-07-28T19:43:14.262Z,94501.00
2018-07-28T19:45:46.856Z,94499.00
2018-07-28T19:48:19.785Z,94494.00
2018-07-28T19:50:53.223Z,94491.00
2018-07-28T19:53:27.034Z,94495.00
2018-07-28T19:55:59.484Z,94499.00
2018-07-28T19:58:32.585Z,94505.00
2018-07-28T20:01:06.383Z,94501.00
2018-07-28T20:03:38.894Z,94497.00
2018-07-28T20:06:11.426Z,94492.00
2018-07-28T20:08:43.336Z,94498.00
2018-07-28T20:11:15.893Z,94497.00
2018-07-28T20:13:47.893Z,94504.00
2018-07-28T20:16:20.496Z,94495.00
2018-07-28T20:18:53.860Z,94495.00
2018-07-28T20:21:26.276Z,94488.00
2018-07-28T20:23:58.721Z,94492.00
2018-07-28T20:26:31.169Z,94489.00
2018-07-28T20:29:03.846Z,94483.00
2018-07-28T20:31:36.511Z,94486.00
2018-07-28T20:34:09.007Z,94486.00
2018-07-28T20:36:41.668Z,94491.00
2018-07-28T20:39:14.356Z,94492.00
2018-07-28T20:41:48.035Z,94486.00
2018-07-28T20:44:20.504Z,94486.00
2018-07-28T20:46:52.632Z,94487.00
2018-07-28T20:49:24.819Z,94491.00
2018-07-28T20:51:57.517Z,94490.00
2018-07-28T20:54:30.213Z,94488.00
2018-07-28T20:57:02.434Z,94490.00
2018-07-28T20:59:34.582Z,94493.00
2018-07-28T21:02:06.996Z,94502.00
2018-07-28T21:04:41.199Z,94500.00
2018-07-28T21:07:13.452Z,94497.00
2018-07-28T21:09:46.724Z,94497.00
2018-07-28T21:12:18.864Z,94489.00
2018-07-28T21:14:50.911Z,94490.00
2018-07-28T21:17:22.505Z,94493.00
2018-07-28T21:19:54.873Z,94496.00
2018-07-28T21:22:26.596Z,94495.00
2018-07-28T21:24:58.506Z,94500.00
2018-07-28T21:27:30.864Z,94499.00
2018-07-28T21:30:03.152Z,94505.00
2018-07-28T21:32:35.208Z,94504.00
2018-07-28T21:35:07.846Z,94504.00
2018-07-28T21:37:40.452Z,94508.00
2018-07-28T21:40:12.567Z,94509.00
2018-07-28T21:42:44.720Z,94510.00
2018-07-28T21:45:17.142Z,94521.00
2018-07-28T21:47:49.823Z,94523.00
2018-07-28T21:50:21.949Z,94515.00
2018-07-28T21:52:54.166Z,94518.00
2018-07-28T21:55:26.013Z,94512.00
2018-07-28T21:57:58.116Z,94506.00
2018-07-28T22:00:34.611Z,94509.00
2018-07-28T22:03:06.843Z,94511.00
2018-07-28T22:05:39.296Z,94515.00
2018-07-28T22:08:11.342Z,94508.00
2018-07-28T22:10:44.880Z,94507.00
2018-07-28T22:13:16.246Z,94509.00
2018-07-28T22:15:48.103Z,94508.00
2018-07-28T22:18:20.269Z,94508.00
2018-07-28T22:20:52.770Z,94500.00
2018-07-28T22:23:25.868Z,94504.00
2018-07-28T22:25:58.060Z,94501.00
2018-07-28T22:28:30.670Z,94498.00
2018-07-28T22:31:03.124Z,94499.00
2018-07-28T22:33:35.253Z,94498.00
2018-07-28T22:36:08.171Z,94499.00
2018-07-28T22:38:40.930Z,94499.00
2018-07-28T22:41:13.008Z,94500.00
2018-07-28T22:43:45.455Z,94506.00
2018-07-28T22:46:17.417Z,94505.00
2018-07-28T22:48:49.864Z,94493.00
2018-07-28T22:51:21.532Z,94485.00
2018-07-28T22:53:54.408Z,94482.00
2018-07-28T22:56:26.617Z,94481.00
2018-07-28T22:58:58.600Z,94475.00
2018-07-28T23:01:30.815Z,94473.00
2018-07-28T23:04:04.222Z,94474.00
2018-07-28T23:06:36.505Z,94469.00
2018-07-28T23:09:11.745Z,94471.00
2018-07-28T23:11:43.902Z,94472.00
2018-07-28T23:14:16.001Z,94469.00
2018-07-28T23:16:48.202Z,94468.00
2018-07-28T23:19:20.074Z,94469.00
2018-07-28T23:21:52.270Z,94475.00
2018-07-28T23:24:24.794Z,94473.00
2018-07-28T23:26:56.940Z,94470.00
2018-07-28T23:29:29.123Z,94473.00
2018-07-28T23:32:01.388Z,94473.00
2018-07-28T23:34:33.864Z,94474.00
2018-07-28T23:37:05.897Z,94474.00
2018-07-28T23:39:37.971Z,94474.00
2018-07-28T23:42:10.897Z,94473.00
2018-07-28T23:44:42.991Z,94472.00
2018-07-28T23:47:15.645Z,94471.00
2018-07-28T23:49:47.072Z,94472.00
2018-07-28T23:52:19.388Z,94469.00
2018-07-28T23:54:51.558Z,94474.00
2018-07-28T23:57:24.012Z,94472.00
2018-07-28T23:59:55.976Z,94473.00
